Station: Coober Pedy Airport  

  Atmospheric Gas Attenuation - ITU Rec 676-11   ----------------- dB/100km -----------------
Date Time Temp RH % AH g/m3 Dew Point Wind Direction Speed kph Gust kph Barometer mB Rainfall Since 9am 24GHz 47GHz 76GHz 122GHz 134GHz 241GHz
09/05 22:20 14.7 63 7.93 7.7 20 24 1027.5 0 18.1 25.1 37.3 97.7 89.7 308.0
09/05 22:10 14.7 62 7.81 7.5 17 20 1027.5 0 17.9 24.9 36.9 96.4 88.2 302.6
09/05 22:00 14.7 62 7.81 7.5 17 20 1027.5 0 17.9 24.9 36.9 96.4 88.2 302.6
09/05 21:50 15 61 7.82 7.5 17 20 1027.5 0 17.9 24.8 36.8 96.2 88.0 301.9
09/05 21:40 15.1 61 7.87 7.6 15 17 1027.5 0 18.0 24.9 36.9 96.6 88.5 303.8
09/05 21:30 15.4 60 7.88 7.7 17 20 1027.6 0 18.0 24.8 36.8 96.3 88.3 303.1
09/05 21:20 15.4 59 7.75 7.4 15 17 1027.6 0 17.7 24.6 36.3 95.0 86.6 297.3
09/05 21:10 15.5 59 7.8 7.5 15 17 1027.5 0 17.8 24.7 36.5 95.4 87.1 299.1
09/05 21:00 15.6 58 7.71 7.4 17 20 1027.5 0 17.6 24.5 36.1 94.3 85.9 294.8
09/05 20:50 16 57 7.77 7.5 17 19 1027.5 0 17.7 24.5 36.1 94.5 86.2 296.0
09/05 20:40 15.9 56 7.58 7.1 15 15 1027.6 0 17.3 24.2 35.5 92.7 84.0 288.0
09/05 20:30 16 55 7.49 7 13 15 1027.5 0 17.1 24.1 35.1 91.6 82.7 283.7
09/05 20:20 16.3 55 7.63 7.3 13 13 1027.5 0 17.4 24.2 35.5 92.7 84.1 288.7
09/05 20:10 16.5 54 7.58 7.2 13 15 1027.4 0 17.3 24.1 35.2 92.0 83.3 285.8
09/05 20:00 16.7 53 7.53 7.1 13 15 1027.4 0 17.2 23.9 34.9 91.2 82.5 282.9
09/05 19:50 16.9 53 7.62 7.3 13 15 1027.3 0 17.4 24.0 35.2 91.9 83.4 286.1
09/05 19:40 17.1 52 7.57 7.2 13 15 1027.3 0 17.2 23.9 34.9 91.2 82.5 283.2
09/05 19:30 17.2 51 7.47 7 13 15 1027.2 0 17.0 23.7 34.5 90.0 81.2 278.6
09/05 19:20 17.5 51 7.6 7.3 13 15 1027.1 0 17.3 23.8 34.8 91.0 82.5 283.1
09/05 19:10 17.6 50 7.5 7.1 13 15 1027 0 17.1 23.6 34.4 89.9 81.2 278.4
09/05 19:00 17.8 49 7.44 7 13 13 1027 0 16.9 23.5 34.1 89.1 80.2 275.2
09/05 18:50 18.1 48 7.42 6.9 11 13 1026.9 0 16.9 23.4 33.9 88.5 79.7 273.3
09/05 18:40 18.4 47 7.39 6.9 11 11 1026.8 0 16.8 23.3 33.7 87.9 79.0 271.0
09/05 18:30 18.7 47 7.52 7.2 13 15 1026.7 0 17.1 23.4 34.0 88.8 80.3 275.4
09/05 18:20 19 46 7.5 7.1 13 15 1026.6 0 17.0 23.3 33.8 88.3 79.7 273.5
09/05 18:10 19.3 45 7.46 7.1 15 17 1026.5 0 16.9 23.1 33.5 87.6 78.9 270.8
09/05 18:00 19.5 44 7.38 6.9 17 20 1026.4 0 16.7 23.0 33.2 86.6 77.8 266.8
09/05 17:50 19.7 43 7.3 6.8 15 17 1026.4 0 16.6 22.8 32.8 85.6 76.7 262.9
09/05 17:40 19.9 43 7.39 7 17 20 1026.3 0 16.7 22.9 33.0 86.3 77.5 265.9
09/05 17:30 20.2 42 7.34 6.9 15 20 1026.3 0 16.6 22.7 32.7 85.5 76.6 262.9
09/05 17:20 20.2 42 7.34 6.9 19 20 1026.3 0 16.6 22.7 32.7 85.5 76.6 262.9
09/05 17:10 20.4 41 7.25 6.7 17 20 1026.3 0 16.4 22.6 32.3 84.4 75.4 258.6
09/05 17:00 20.4 41 7.25 6.7 11 20 1026.1 0 16.4 22.5 32.3 84.4 75.4 258.5
09/05 16:50 20.4 40 7.08 6.4 15 17 1026.2 0 16.1 22.3 31.7 82.8 73.4 251.7
09/05 16:40 20.8 40 7.24 6.7 15 17 1026.1 0 16.4 22.4 32.1 83.9 74.9 256.9
09/05 16:30 20.8 40 7.24 6.7 13 20 1026.1 0 16.4 22.4 32.1 83.9 74.9 256.9
09/05 16:20 20.8 39 7.06 6.4 13 15 1026 0 16.0 22.2 31.5 82.2 72.8 249.6
09/05 16:10 20.8 40 7.24 6.7 11 13 1026 0 16.4 22.4 32.1 83.9 74.9 256.8
09/05 16:00 21 40 7.33 6.9 15 20 1026 0 16.6 22.5 32.4 84.5 75.7 259.9
09/05 15:50 20.9 40 7.28 6.8 15 17 1026 0 16.5 22.5 32.2 84.1 75.3 258.1
09/05 15:40 20.5 40 7.12 6.4 13 15 1026 0 16.2 22.3 31.8 83.1 73.8 252.9
09/05 15:30 20.6 41 7.34 6.9 15 20 1026 0 16.6 22.6 32.6 85.0 76.2 261.5
09/05 15:20 20.7 41 7.38 7 11 13 1026 0 16.7 22.7 32.7 85.3 76.6 262.8
09/05 15:10 20.7 41 7.38 7 15 17 1026.1 0 16.7 22.7 32.7 85.3 76.6 262.9
09/05 15:00 20.5 40 7.12 6.5 15 20 1026 0 16.2 22.3 31.8 83.1 73.8 252.9
09/05 14:50 20.8 42 7.6 7.4 9 13 1026.2 0 17.1 23.0 33.4 87.3 79.1 271.6
09/05 14:40 20.4 43 7.61 7.4 9 11 1026.2 0 17.2 23.1 33.6 87.8 79.6 273.3
09/05 14:30 20.2 43 7.52 7.2 13 20 1026.3 0 17.0 23.0 33.4 87.2 78.7 270.3
09/05 14:20 20.4 43 7.61 7.4 13 17 1026.5 0 17.2 23.1 33.6 87.8 79.6 273.4
09/05 14:10 20.2 44 7.69 7.6 13 19 1026.6 0 17.4 23.2 34.0 88.8 80.8 277.4
09/05 14:00 19.5 45 7.55 7.3 6 15 1026.8 0 17.1 23.2 33.8 88.3 79.8 274.0
09/05 13:50 19.9 45 7.73 7.6 15 17 1026.9 0 17.5 23.4 34.3 89.6 81.6 280.1
09/05 13:40 20 45 7.78 7.7 6 13 1027.1 0 17.6 23.4 34.4 90.0 82.1 281.9
09/05 13:30 19.5 46 7.72 7.6 7 15 1027.3 0 17.5 23.5 34.4 89.9 81.9 281.2
09/05 13:20 19.3 46 7.63 7.4 6 9 1027.5 0 17.3 23.4 34.2 89.3 81.0 278.2
09/05 13:10 19.1 46 7.54 7.2 7 9 1027.7 0 17.1 23.3 33.9 88.7 80.2 275.1
09/05 13:00 19.4 46 7.67 7.5 11 17 1027.9 0 17.4 23.5 34.3 89.6 81.4 279.6
09/05 12:50 18.8 47 7.57 7.3 7 9 1028.1 0 17.2 23.5 34.2 89.3 80.9 277.5
09/05 12:40 18.9 48 7.78 7.7 7 11 1028.3 0 17.6 23.8 34.9 91.3 83.3 286.1
09/05 12:30 19.3 48 7.96 8 11 19 1028.5 0 18.0 23.9 35.4 92.6 85.1 292.3
09/05 12:20 18.6 49 7.8 7.7 13 19 1028.7 0 17.7 23.9 35.1 91.9 83.9 288.1
09/05 12:10 18.8 50 8.05 8.2 9 15 1029 0 18.2 24.2 36.0 94.1 86.7 298.1
09/05 12:00 18.3 51 7.97 8 15 24 1029.1 0 18.0 24.2 35.9 93.9 86.3 296.5
09/05 11:50 18.5 51 8.07 8.2 13 15 1029.5 0 18.2 24.4 36.2 94.7 87.3 300.2
09/05 11:40 18.1 52 8.03 8.1 13 15 1029.6 0 18.2 24.4 36.3 94.8 87.3 300.0
09/05 11:30 17.8 53 8.04 8.1 19 26 1029.8 0 18.2 24.5 36.4 95.3 87.8 301.6
09/05 11:20 17.7 55 8.3 8.6 17 22 1029.9 0 18.7 24.9 37.5 98.0 91.1 313.4
09/05 11:10 17.8 55 8.35 8.6 24 28 1029.9 0 18.9 25.0 37.6 98.4 91.6 315.2
09/05 11:00 17.4 55 8.15 8.3 22 32 1030.2 0 18.4 24.8 37.0 96.9 89.6 308.0
09/05 10:50 16.9 57 8.2 8.3 19 22 1030.4 0 18.6 25.0 37.5 98.1 90.8 312.2
09/05 10:40 16.5 60 8.42 8.7 28 30 1030.5 0 19.1 25.5 38.5 100.8 94.1 323.6
09/05 10:30 16.3 62 8.6 9 24 32 1030.5 0 19.4 25.8 39.3 103.0 96.7 332.6
09/05 10:20 16 63 8.58 9 24 26 1030.5 0 19.4 25.9 39.4 103.1 96.8 332.9
09/05 10:10 15.5 65 8.59 9 22 28 1030.5 0 19.5 26.0 39.7 103.9 97.5 335.5
09/05 10:00 15.3 68 8.88 9.4 28 33 1030.6 0 20.1 26.6 40.9 107.3 101.6 349.7
09/05 09:50 15 69 8.85 9.4 28 32 1030.6 0 20.0 26.6 41.0 107.3 101.6 349.6
09/05 09:40 14.7 72 9.07 9.7 22 26 1030.6 0 20.5 27.1 42.0 110.1 104.9 361.3
09/05 09:30 14.2 73 8.91 9.4 24 32 1030.6 0 20.2 26.9 41.6 109.1 103.5 356.0
09/05 09:20 13.5 75 8.77 9.2 26 32 1030.6 0 19.9 26.9 41.4 108.5 102.5 352.6
09/05 09:10 12.6 76 8.41 8.5 26 28 1030.6 0 19.2 26.6 40.4 105.8 98.8 339.6
09/05 09:00 12.1 76 8.15 8 22 30 1030.6 0 18.7 26.3 39.6 103.6 95.9 329.4
09/05 08:50 11.8 77 8.11 7.9 22 24 1030.4 0 18.6 26.3 39.6 103.6 95.7 328.7
09/05 08:40 11.4 79 8.11 7.9 22 24 1030.3 0 18.6 26.4 39.8 104.1 96.2 330.4
09/05 08:30 11.3 79 8.06 7.8 22 28 1030.2 0 18.5 26.4 39.6 103.7 95.7 328.4
09/05 08:20 10.9 78 7.76 7.2 22 24 1030.1 0 17.9 26.0 38.6 100.9 92.1 315.8
09/05 08:10 10.4 79 7.62 6.9 19 20 1030 0 17.6 25.9 38.2 100.0 90.8 311.2
09/05 08:00 10 79 7.43 6.5 13 17 1029.9 0 17.2 25.7 37.6 98.4 88.7 303.7
09/05 07:50 9.6 80 7.33 6.3 13 17 1029.8 0 17.1 25.7 37.4 97.8 87.8 300.5
09/05 07:40 9.3 81 7.28 6.2 13 15 1029.8 0 17.0 25.7 37.4 97.6 87.4 299.3
09/05 07:30 8.9 81 7.1 5.8 15 17 1029.7 0 16.6 25.5 36.8 96.1 85.5 292.3
09/05 07:20 8.7 82 7.09 5.8 17 19 1029.6 0 16.6 25.5 36.8 96.3 85.5 292.5
09/05 07:10 8.6 82 7.05 5.7 15 17 1029.5 0 16.5 25.5 36.7 95.9 85.1 291.0
09/05 07:00 8.6 81 6.96 5.5 15 19 1029.2 0 16.3 25.3 36.3 94.9 83.9 286.6
09/05 06:50 8.7 80 6.92 5.4 15 17 1029.2 0 16.2 25.2 36.1 94.4 83.2 284.4
09/05 06:40 8.7 80 6.92 5.4 15 17 1029 0 16.2 25.2 36.1 94.3 83.2 284.3
09/05 06:30 8.8 80 6.97 5.5 17 19 1028.7 0 16.3 25.3 36.3 94.7 83.7 286.3
09/05 06:20 8.8 80 6.97 5.5 17 19 1028.6 0 16.3 25.2 36.3 94.7 83.7 286.2
09/05 06:10 8.7 79 6.83 5.3 15 17 1028.5 0 16.0 25.0 35.7 93.3 82.0 280.0
09/05 06:00 8.8 79 6.88 5.4 17 19 1028.5 0 16.1 25.1 35.9 93.7 82.5 282.0
09/05 05:50 8.8 79 6.88 5.4 17 19 1028.5 0 16.1 25.1 35.9 93.7 82.5 282.0

Last Refresh: 09-May-2026 22:22:56

Bureau of Meteorology